createdAt,value
2019-02-18T00:01:04.511Z,13.20
2019-02-18T00:03:35.474Z,14.93
2019-02-18T00:06:06.321Z,14.20
2019-02-18T00:08:35.814Z,13.78
2019-02-18T00:11:06.165Z,14.60
2019-02-18T00:13:37.320Z,14.05
2019-02-18T00:16:08.245Z,13.53
2019-02-18T00:18:36.968Z,14.20
2019-02-18T00:21:06.535Z,13.15
2019-02-18T00:23:42.749Z,14.00
2019-02-18T00:26:13.128Z,13.18
2019-02-18T00:28:42.812Z,14.47
2019-02-18T00:31:16.423Z,14.38
2019-02-18T00:36:16.170Z,14.90
2019-02-18T00:38:48.133Z,14.70
2019-02-18T00:41:21.367Z,15.58
2019-02-18T00:43:50.204Z,15.20
2019-02-18T00:46:24.021Z,15.13
2019-02-18T00:48:54.260Z,14.43
2019-02-18T00:51:27.663Z,15.38
2019-02-18T00:56:28.396Z,13.65
2019-02-18T00:58:56.977Z,14.13
2019-02-18T01:01:26.277Z,14.25
2019-02-18T01:03:58.332Z,13.53
2019-02-18T01:06:27.076Z,14.18
2019-02-18T01:08:58.176Z,13.05
2019-02-18T01:11:31.769Z,13.35
2019-02-18T01:16:34.514Z,13.83
2019-02-18T01:19:06.526Z,13.73
2019-02-18T01:21:40.097Z,14.75
2019-02-18T01:26:39.115Z,13.25
2019-02-18T01:29:07.839Z,15.05
2019-02-18T01:31:38.245Z,14.07
2019-02-18T01:34:11.552Z,12.50
2019-02-18T01:36:42.573Z,15.35
2019-02-18T01:39:16.277Z,16.52
2019-02-18T01:41:47.771Z,17.50
2019-02-18T01:44:19.556Z,16.30
2019-02-18T01:46:54.006Z,14.73
2019-02-18T01:49:30.249Z,15.00
2019-02-18T01:52:01.356Z,16.32
2019-02-18T01:54:30.428Z,16.12
2019-02-18T01:57:03.901Z,16.48
2019-02-18T02:02:03.594Z,17.65
2019-02-18T02:04:34.194Z,17.77
2019-02-18T02:07:06.264Z,18.35
2019-02-18T02:09:39.551Z,17.92
2019-02-18T02:12:08.281Z,16.82
2019-02-18T02:14:36.821Z,18.55
2019-02-18T02:17:10.435Z,17.50
2019-02-18T02:19:40.651Z,19.45
2019-02-18T02:22:09.603Z,17.73
2019-02-18T02:24:38.857Z,16.23
2019-02-18T02:27:10.639Z,16.75
2019-02-18T02:29:41.002Z,17.20
2019-02-18T02:32:11.399Z,15.88
2019-02-18T02:34:45.487Z,16.50
2019-02-18T02:37:17.374Z,16.27
2019-02-18T02:39:46.306Z,16.52
2019-02-18T02:42:17.944Z,16.15
2019-02-18T02:44:47.173Z,14.73
2019-02-18T02:47:18.631Z,16.15
2019-02-18T02:49:49.958Z,17.45
2019-02-18T02:52:20.492Z,16.50
2019-02-18T02:54:49.577Z,16.97
2019-02-18T02:57:20.039Z,16.93
2019-02-18T02:59:50.787Z,17.42
2019-02-18T03:02:22.887Z,17.02
2019-02-18T03:04:53.707Z,16.80
2019-02-18T03:07:31.197Z,16.82
2019-02-18T03:10:02.507Z,16.15
2019-02-18T03:12:32.629Z,17.42
2019-02-18T03:15:06.049Z,16.65
2019-02-18T03:20:09.602Z,20.25
2019-02-18T03:22:40.045Z,18.30
2019-02-18T03:25:16.651Z,19.42
2019-02-18T03:27:45.256Z,17.65
2019-02-18T03:30:42.792Z,17.67
2019-02-18T03:33:14.515Z,17.45
2019-02-18T03:35:43.447Z,17.67
2019-02-18T03:38:17.156Z,18.82
2019-02-18T03:40:45.695Z,16.07
2019-02-18T03:43:19.619Z,18.45
2019-02-18T03:45:50.366Z,19.67
2019-02-18T03:48:23.970Z,18.25
2019-02-18T03:50:53.550Z,18.00
2019-02-18T03:53:25.579Z,19.10
2019-02-18T03:55:56.348Z,18.20
2019-02-18T03:58:29.853Z,18.82
2019-02-18T04:03:28.240Z,18.07
2019-02-18T04:05:57.156Z,17.95
2019-02-18T04:08:27.618Z,19.15
2019-02-18T04:10:58.141Z,17.20
2019-02-18T04:13:27.264Z,19.12
2019-02-18T04:15:58.346Z,20.52
2019-02-18T04:18:29.181Z,19.05
2019-02-18T04:20:59.310Z,19.48
2019-02-18T04:23:31.351Z,17.98
2019-02-18T04:26:01.276Z,18.20
2019-02-18T04:28:32.842Z,19.35
2019-02-18T04:31:04.218Z,16.60
2019-02-18T04:33:37.860Z,18.75
2019-02-18T04:36:11.500Z,17.60
2019-02-18T04:38:40.430Z,18.42
2019-02-18T04:41:09.307Z,17.42
2019-02-18T04:43:37.866Z,20.10
2019-02-18T04:46:08.407Z,19.40
2019-02-18T04:48:41.735Z,21.65
2019-02-18T04:51:11.118Z,24.72
2019-02-18T04:53:39.878Z,22.70
2019-02-18T04:56:12.120Z,20.77
2019-02-18T04:58:44.054Z,20.55
2019-02-18T05:01:35.983Z,19.65
2019-02-18T05:04:05.216Z,19.20
2019-02-18T05:06:35.496Z,20.77
2019-02-18T05:09:05.959Z,25.65
2019-02-18T05:11:36.356Z,25.27
2019-02-18T05:14:05.677Z,21.55
2019-02-18T05:16:34.408Z,21.65
2019-02-18T05:19:07.063Z,22.32
2019-02-18T05:21:39.063Z,23.35
2019-02-18T05:24:09.881Z,18.12
2019-02-18T05:26:40.676Z,22.37
2019-02-18T05:29:11.341Z,20.48
2019-02-18T05:31:42.005Z,20.72
2019-02-18T05:34:12.462Z,21.05
2019-02-18T05:36:42.774Z,22.15
2019-02-18T05:39:17.884Z,20.50
2019-02-18T05:41:45.244Z,20.88
2019-02-18T05:44:18.479Z,18.85
2019-02-18T05:46:49.518Z,20.23
2019-02-18T05:49:19.638Z,24.85
2019-02-18T05:51:48.826Z,23.83
2019-02-18T05:54:22.504Z,22.05
2019-02-18T05:56:52.926Z,24.77
2019-02-18T05:59:22.395Z,21.73
2019-02-18T06:01:52.898Z,18.95
2019-02-18T06:04:21.657Z,18.85
2019-02-18T06:06:58.754Z,19.62
2019-02-18T06:09:30.452Z,18.98
2019-02-18T06:12:01.344Z,19.48
2019-02-18T06:14:30.982Z,18.75
2019-02-18T06:17:02.889Z,21.15
2019-02-18T06:19:33.145Z,24.63
2019-02-18T06:22:02.898Z,23.18
2019-02-18T06:24:39.554Z,22.75
2019-02-18T06:27:09.558Z,20.10
2019-02-18T06:29:38.848Z,20.95
2019-02-18T06:32:09.057Z,22.93
2019-02-18T06:34:39.748Z,20.85
2019-02-18T06:37:10.483Z,20.08
2019-02-18T06:39:42.001Z,20.68
2019-02-18T06:42:11.446Z,22.20
2019-02-18T06:44:59.589Z,21.25
2019-02-18T06:47:31.810Z,20.40
2019-02-18T06:50:00.565Z,21.20
2019-02-18T06:52:32.890Z,20.95
2019-02-18T06:55:03.361Z,20.43
2019-02-18T06:57:54.171Z,21.87
2019-02-18T07:00:34.576Z,20.88
2019-02-18T07:03:26.018Z,24.18
2019-02-18T07:06:15.100Z,23.95
2019-02-18T07:08:52.343Z,22.35
2019-02-18T07:11:30.681Z,23.60
2019-02-18T07:14:03.050Z,22.58
2019-02-18T07:16:34.802Z,21.40
2019-02-18T07:19:05.724Z,21.33
2019-02-18T07:21:36.158Z,21.70
2019-02-18T07:24:04.751Z,21.52
2019-02-18T07:26:33.631Z,20.88
2019-02-18T07:29:04.451Z,21.12
2019-02-18T07:31:33.419Z,20.48
2019-02-18T07:34:06.671Z,20.70
2019-02-18T07:36:35.216Z,20.97
2019-02-18T07:39:05.337Z,21.87
2019-02-18T07:41:37.634Z,20.40
2019-02-18T07:44:09.293Z,20.40
2019-02-18T07:46:44.937Z,19.98
2019-02-18T07:49:21.270Z,19.32
2019-02-18T07:51:53.249Z,19.12
2019-02-18T07:54:23.836Z,18.15
2019-02-18T07:56:53.404Z,19.00
2019-02-18T07:59:24.003Z,18.57
2019-02-18T08:01:55.468Z,19.95
2019-02-18T08:04:24.402Z,24.70
2019-02-18T08:06:55.307Z,23.07
2019-02-18T08:09:27.381Z,22.27
2019-02-18T08:11:55.909Z,19.07
2019-02-18T08:14:27.959Z,19.48
2019-02-18T08:16:56.681Z,18.87
2019-02-18T08:19:33.579Z,18.27
2019-02-18T08:22:03.513Z,18.77
2019-02-18T08:24:37.442Z,18.05
2019-02-18T08:27:09.919Z,19.70
2019-02-18T08:29:42.240Z,18.87
2019-02-18T08:32:14.535Z,19.23
2019-02-18T08:34:45.887Z,18.60
2019-02-18T08:37:17.885Z,19.00
2019-02-18T08:39:48.434Z,19.42
2019-02-18T08:42:18.817Z,19.50
2019-02-18T08:44:49.730Z,19.77
2019-02-18T08:47:20.446Z,17.85
2019-02-18T08:49:55.766Z,20.62
2019-02-18T08:52:30.847Z,19.82
2019-02-18T08:55:13.337Z,20.23
2019-02-18T08:57:48.186Z,17.98
2019-02-18T09:00:18.783Z,17.87
2019-02-18T09:02:52.959Z,18.90
2019-02-18T09:05:23.930Z,19.30
2019-02-18T09:07:52.898Z,19.12
2019-02-18T09:10:32.944Z,19.32
2019-02-18T09:12:54.568Z,17.27
2019-02-18T09:15:28.488Z,17.50
2019-02-18T09:18:03.179Z,18.32
2019-02-18T09:20:35.199Z,21.80
2019-02-18T09:23:21.169Z,18.92
2019-02-18T09:25:59.312Z,17.12
2019-02-18T09:28:37.774Z,17.77
2019-02-18T09:31:10.903Z,18.00
2019-02-18T09:33:41.585Z,18.23
2019-02-18T09:36:12.153Z,18.32
2019-02-18T09:38:47.307Z,18.90
2019-02-18T09:41:25.502Z,18.15
2019-02-18T09:43:57.446Z,18.85
2019-02-18T09:46:31.065Z,16.52
2019-02-18T09:51:27.493Z,22.05
2019-02-18T09:54:00.079Z,16.77
2019-02-18T09:56:30.477Z,17.85
2019-02-18T09:58:59.800Z,16.80
2019-02-18T10:01:30.341Z,16.45
2019-02-18T10:04:03.960Z,16.73
2019-02-18T10:06:33.951Z,16.27
2019-02-18T10:09:04.673Z,17.15
2019-02-18T10:11:43.221Z,15.68
2019-02-18T10:14:13.917Z,16.95
2019-02-18T10:16:43.025Z,15.15
2019-02-18T10:19:14.510Z,15.10
2019-02-18T10:21:43.154Z,15.23
2019-02-18T10:24:13.384Z,16.60
2019-02-18T10:26:44.035Z,14.73
2019-02-18T10:29:12.943Z,14.95
2019-02-18T10:31:44.632Z,15.40
2019-02-18T10:34:14.081Z,14.93
2019-02-18T10:36:44.438Z,14.55
2019-02-18T10:39:18.999Z,14.63
2019-02-18T10:41:54.108Z,14.78
2019-02-18T10:44:28.531Z,15.13
2019-02-18T10:47:01.845Z,13.78
2019-02-18T10:49:30.899Z,14.55
2019-02-18T10:52:00.933Z,16.00
2019-02-18T10:54:33.060Z,14.33
2019-02-18T10:57:06.820Z,15.40
2019-02-18T10:59:42.231Z,15.38
2019-02-18T11:02:17.331Z,14.70
2019-02-18T11:04:47.964Z,15.05
2019-02-18T11:07:22.518Z,14.40
2019-02-18T11:09:51.508Z,15.90
2019-02-18T11:12:25.517Z,15.30
2019-02-18T11:14:58.742Z,15.80
2019-02-18T11:17:38.819Z,15.48
2019-02-18T11:20:08.938Z,15.00
2019-02-18T11:22:42.628Z,14.95
2019-02-18T11:27:43.354Z,15.05
2019-02-18T11:30:13.498Z,14.87
2019-02-18T11:32:48.288Z,14.18
2019-02-18T11:35:21.103Z,15.18
2019-02-18T11:37:51.510Z,14.40
2019-02-18T11:40:23.467Z,15.88
2019-02-18T11:42:54.088Z,13.98
2019-02-18T11:45:26.066Z,14.85
2019-02-18T11:47:55.004Z,14.03
2019-02-18T11:50:28.326Z,14.43
2019-02-18T11:53:00.388Z,14.03
2019-02-18T11:55:31.107Z,13.35
2019-02-18T11:58:05.445Z,13.32
2019-02-18T12:00:39.281Z,14.35
2019-02-18T12:03:12.298Z,14.03
2019-02-18T12:05:48.573Z,13.53
2019-02-18T12:08:25.891Z,13.00
2019-02-18T12:11:02.912Z,13.65
2019-02-18T12:13:31.697Z,14.47
2019-02-18T12:16:02.148Z,13.60
2019-02-18T12:18:38.392Z,14.33
2019-02-18T12:21:07.704Z,12.88
2019-02-18T12:23:48.212Z,14.00
2019-02-18T12:26:24.093Z,13.98
2019-02-18T12:29:14.962Z,13.22
2019-02-18T12:31:46.131Z,13.53
2019-02-18T12:34:18.650Z,13.80
2019-02-18T12:36:48.250Z,13.98
2019-02-18T12:39:22.758Z,14.85
2019-02-18T12:41:56.969Z,13.88
2019-02-18T12:44:31.174Z,12.30
2019-02-18T12:47:01.775Z,12.70
2019-02-18T12:49:34.374Z,12.13
2019-02-18T12:52:05.157Z,13.22
2019-02-18T12:54:34.446Z,14.80
2019-02-18T12:57:04.822Z,12.18
2019-02-18T12:59:36.425Z,12.98
2019-02-18T13:02:13.136Z,12.28
2019-02-18T13:04:45.099Z,12.78
2019-02-18T13:07:16.059Z,13.03
2019-02-18T13:09:44.975Z,12.95
2019-02-18T13:12:15.789Z,12.78
2019-02-18T13:14:47.229Z,11.63
2019-02-18T13:17:19.187Z,12.93
2019-02-18T13:19:50.107Z,12.47
2019-02-18T13:22:22.250Z,11.85
2019-02-18T13:24:55.510Z,12.18
2019-02-18T13:27:29.935Z,11.93
2019-02-18T13:30:01.010Z,12.35
2019-02-18T13:32:32.682Z,11.43
2019-02-18T13:35:03.128Z,11.53
2019-02-18T13:37:33.370Z,11.60
2019-02-18T13:40:02.629Z,11.10
2019-02-18T13:42:35.919Z,10.93
2019-02-18T13:45:06.507Z,11.75
2019-02-18T13:47:36.084Z,11.88
2019-02-18T13:50:05.132Z,10.95
2019-02-18T13:52:37.213Z,11.33
2019-02-18T13:55:08.204Z,11.88
2019-02-18T13:57:40.748Z,11.73
2019-02-18T14:00:18.303Z,10.50
2019-02-18T14:02:47.898Z,10.08
2019-02-18T14:05:18.761Z,11.60
2019-02-18T14:07:50.987Z,10.55
2019-02-18T14:10:21.075Z,10.88
2019-02-18T14:12:51.900Z,11.20
2019-02-18T14:15:23.453Z,10.40
2019-02-18T14:17:51.997Z,11.90
2019-02-18T14:20:22.668Z,10.80
2019-02-18T14:22:51.559Z,10.63
2019-02-18T14:25:23.541Z,11.20
2019-02-18T14:27:55.455Z,12.23
2019-02-18T14:30:27.344Z,11.53
2019-02-18T14:32:59.429Z,12.13
2019-02-18T14:35:29.381Z,11.10
2019-02-18T14:37:58.130Z,12.30
2019-02-18T14:40:27.128Z,12.30
2019-02-18T14:42:56.482Z,11.88
2019-02-18T14:45:25.932Z,10.90
2019-02-18T14:47:54.823Z,11.08
2019-02-18T14:50:27.203Z,10.98
2019-02-18T14:52:57.380Z,11.43
2019-02-18T14:55:26.330Z,11.65
2019-02-18T14:57:54.868Z,11.90
2019-02-18T15:00:24.031Z,12.60
2019-02-18T15:02:56.017Z,13.93
2019-02-18T15:05:25.564Z,13.78
2019-02-18T15:07:56.208Z,11.63
2019-02-18T15:10:28.183Z,13.32
2019-02-18T15:12:57.469Z,12.63
2019-02-18T15:15:28.096Z,12.33
2019-02-18T15:17:56.987Z,11.65
2019-02-18T15:20:30.457Z,13.28
2019-02-18T15:23:01.091Z,11.83
2019-02-18T15:25:29.875Z,11.25
2019-02-18T15:27:59.104Z,10.53
2019-02-18T15:30:28.014Z,12.37
2019-02-18T15:33:07.549Z,11.43
2019-02-18T15:35:39.307Z,11.22
2019-02-18T15:38:09.920Z,11.75
2019-02-18T15:40:39.946Z,12.20
2019-02-18T15:43:10.074Z,12.03
2019-02-18T15:45:40.324Z,12.20
2019-02-18T15:48:10.738Z,12.25
2019-02-18T15:50:40.330Z,11.80
2019-02-18T15:53:12.077Z,12.78
2019-02-18T15:55:42.235Z,11.90
2019-02-18T15:58:12.669Z,11.97
2019-02-18T16:00:45.047Z,13.25
2019-02-18T16:03:17.174Z,11.45
2019-02-18T16:05:47.620Z,12.03
2019-02-18T16:08:17.765Z,11.53
2019-02-18T16:10:53.715Z,11.80
2019-02-18T16:13:27.587Z,11.33
2019-02-18T16:15:58.155Z,11.73
2019-02-18T16:18:28.646Z,10.95
2019-02-18T16:21:03.680Z,12.98
2019-02-18T16:23:35.064Z,11.80
2019-02-18T16:26:13.349Z,12.58
2019-02-18T16:28:44.317Z,13.08
2019-02-18T16:31:20.413Z,13.70
2019-02-18T16:33:52.414Z,14.18
2019-02-18T16:36:25.228Z,13.65
2019-02-18T16:38:55.311Z,16.73
2019-02-18T16:41:27.583Z,14.68
2019-02-18T16:43:56.144Z,16.90
2019-02-18T16:46:31.204Z,13.00
2019-02-18T16:49:00.727Z,15.63
2019-02-18T16:51:40.233Z,12.63
2019-02-18T16:54:09.140Z,10.80
2019-02-18T16:56:40.153Z,12.93
2019-02-18T16:59:12.431Z,13.62
2019-02-18T17:01:41.357Z,12.10
2019-02-18T17:04:10.552Z,13.10
2019-02-18T17:06:39.493Z,14.23
2019-02-18T17:09:16.435Z,13.78
2019-02-18T17:11:47.965Z,13.60
2019-02-18T17:14:22.380Z,13.70
2019-02-18T17:16:51.998Z,13.20
2019-02-18T17:19:21.482Z,13.25
2019-02-18T17:21:53.467Z,13.85
2019-02-18T17:24:22.313Z,13.58
2019-02-18T17:26:53.979Z,17.55
2019-02-18T17:29:26.187Z,18.42
2019-02-18T17:31:55.423Z,20.57
2019-02-18T17:34:27.780Z,18.85
2019-02-18T17:37:04.966Z,18.00
2019-02-18T17:39:37.748Z,17.42
2019-02-18T17:42:10.675Z,14.83
2019-02-18T17:44:44.329Z,13.38
2019-02-18T17:49:52.851Z,15.43
2019-02-18T17:52:22.305Z,15.80
2019-02-18T17:54:57.516Z,15.28
2019-02-18T17:57:32.360Z,15.72
2019-02-18T18:00:03.679Z,17.42
2019-02-18T18:02:38.534Z,19.77
2019-02-18T18:05:11.459Z,20.45
2019-02-18T18:07:43.891Z,18.87
2019-02-18T18:10:15.930Z,14.43
2019-02-18T18:12:53.522Z,14.68
2019-02-18T18:15:23.950Z,14.47
2019-02-18T18:17:56.366Z,12.33
2019-02-18T18:20:27.234Z,12.58
2019-02-18T18:23:04.508Z,11.75
2019-02-18T18:25:37.711Z,17.90
2019-02-18T18:28:14.094Z,11.93
2019-02-18T18:30:43.325Z,10.95
2019-02-18T18:33:18.846Z,10.93
2019-02-18T18:35:48.172Z,11.10
2019-02-18T18:38:18.518Z,11.38
2019-02-18T18:40:49.313Z,12.00
2019-02-18T18:43:19.468Z,11.93
2019-02-18T18:45:50.267Z,13.00
2019-02-18T18:48:23.375Z,12.20
2019-02-18T18:50:55.848Z,12.45
2019-02-18T18:53:27.705Z,12.65
2019-02-18T18:55:58.268Z,12.15
2019-02-18T18:58:29.361Z,12.63
2019-02-18T19:01:03.671Z,12.50
2019-02-18T19:03:36.090Z,10.80
2019-02-18T19:06:08.607Z,10.50
2019-02-18T19:08:38.446Z,9.43
2019-02-18T19:11:13.701Z,10.00
2019-02-18T19:13:45.851Z,10.43
2019-02-18T19:16:14.843Z,12.23
2019-02-18T19:18:51.521Z,10.93
2019-02-18T19:21:22.909Z,11.60
2019-02-18T19:23:56.691Z,10.95
2019-02-18T19:26:31.973Z,12.15
2019-02-18T19:29:03.195Z,10.93
2019-02-18T19:31:33.445Z,12.07
2019-02-18T19:34:04.280Z,11.57
2019-02-18T19:36:35.447Z,12.23
2019-02-18T19:39:11.370Z,12.25
2019-02-18T19:41:42.876Z,13.08
2019-02-18T19:44:15.072Z,12.28
2019-02-18T19:46:44.135Z,11.33
2019-02-18T19:49:16.784Z,11.80
2019-02-18T19:51:52.165Z,12.70
2019-02-18T19:54:21.271Z,12.28
2019-02-18T19:56:52.147Z,12.28
2019-02-18T19:59:23.204Z,12.47
2019-02-18T20:01:55.020Z,12.73
2019-02-18T20:04:25.253Z,13.08
2019-02-18T20:06:55.909Z,13.70
2019-02-18T20:09:27.672Z,14.38
2019-02-18T20:11:56.250Z,13.25
2019-02-18T20:14:46.560Z,14.13
2019-02-18T20:17:23.016Z,14.30
2019-02-18T20:20:16.418Z,15.50
2019-02-18T20:22:50.285Z,12.97
2019-02-18T20:25:22.356Z,13.18
2019-02-18T20:27:53.057Z,14.45
2019-02-18T20:30:26.651Z,13.60
2019-02-18T20:33:05.094Z,13.68
2019-02-18T20:35:39.280Z,14.63
2019-02-18T20:38:17.717Z,13.55
2019-02-18T20:40:57.371Z,13.62
2019-02-18T20:43:29.846Z,14.33
2019-02-18T20:46:02.847Z,14.98
2019-02-18T20:48:39.237Z,15.53
2019-02-18T20:51:11.860Z,15.58
2019-02-18T20:53:42.499Z,15.93
2019-02-18T20:56:16.149Z,16.62
2019-02-18T20:58:48.801Z,14.70
2019-02-18T21:01:21.039Z,16.25
2019-02-18T21:03:50.558Z,15.60
2019-02-18T21:06:22.903Z,15.60
2019-02-18T21:08:55.643Z,14.80
2019-02-18T21:11:27.667Z,16.33
2019-02-18T21:14:06.287Z,14.30
2019-02-18T21:16:42.358Z,13.25
2019-02-18T21:19:13.130Z,14.15
2019-02-18T21:21:43.760Z,14.68
2019-02-18T21:24:15.129Z,14.50
2019-02-18T21:26:47.330Z,14.63
2019-02-18T21:29:17.741Z,14.10
2019-02-18T21:31:47.766Z,14.43
2019-02-18T21:34:19.909Z,14.60
2019-02-18T21:36:54.526Z,13.70
2019-02-18T21:39:27.042Z,13.58
2019-02-18T21:42:00.974Z,14.90
2019-02-18T21:44:40.473Z,14.43
2019-02-18T21:47:12.402Z,14.13
2019-02-18T21:49:42.973Z,15.15
2019-02-18T21:52:20.172Z,14.45
2019-02-18T21:54:55.124Z,14.47
2019-02-18T21:57:30.916Z,13.58
2019-02-18T22:00:05.500Z,13.48
2019-02-18T22:02:37.901Z,14.50
2019-02-18T22:05:10.328Z,14.40
2019-02-18T22:07:50.608Z,13.55
2019-02-18T22:10:23.081Z,14.53
2019-02-18T22:12:57.981Z,13.65
2019-02-18T22:15:31.263Z,14.95
2019-02-18T22:18:04.865Z,14.80
2019-02-18T22:20:44.569Z,14.93
2019-02-18T22:23:25.299Z,14.83
2019-02-18T22:25:54.386Z,16.93
2019-02-18T22:28:23.977Z,16.00
2019-02-18T22:31:05.228Z,16.27
2019-02-18T22:33:36.671Z,20.30
2019-02-18T22:36:08.720Z,20.43
2019-02-18T22:38:44.079Z,17.45
2019-02-18T22:41:17.176Z,16.23
2019-02-18T22:43:49.216Z,16.70
2019-02-18T22:46:18.837Z,18.27
2019-02-18T22:48:51.451Z,18.30
2019-02-18T22:51:25.440Z,19.60
2019-02-18T22:53:54.539Z,17.98
2019-02-18T22:56:26.877Z,18.48
2019-02-18T22:58:58.500Z,17.73
2019-02-18T23:01:31.200Z,16.77
2019-02-18T23:04:06.451Z,16.57
2019-02-18T23:06:47.139Z,18.87
2019-02-18T23:09:20.124Z,15.95
2019-02-18T23:11:55.671Z,17.57
2019-02-18T23:14:24.602Z,18.73
2019-02-18T23:17:04.005Z,19.02
2019-02-18T23:19:36.861Z,18.37
2019-02-18T23:22:08.101Z,16.32
2019-02-18T23:24:42.544Z,17.55
2019-02-18T23:27:16.025Z,16.60
2019-02-18T23:29:48.633Z,17.50
2019-02-18T23:32:18.844Z,17.07
2019-02-18T23:34:52.425Z,17.25
2019-02-18T23:39:53.476Z,17.20
2019-02-18T23:42:31.605Z,15.83
2019-02-18T23:45:05.218Z,17.73
2019-02-18T23:50:12.202Z,16.93
2019-02-18T23:52:44.215Z,16.65
2019-02-18T23:55:13.194Z,16.85
2019-02-18T23:57:46.708Z,15.83
